sensor_id;sensor_type;location;lat;lon;timestamp;P1;durP1;ratioP1;P2;durP2;ratioP2
10303;SDS011;5197;48.152;8.590;2022-12-07T00:01:17;10.57;;;6.07;;
10303;SDS011;5197;48.152;8.590;2022-12-07T00:03:46;6.87;;;6.00;;
10303;SDS011;5197;48.152;8.590;2022-12-07T00:06:15;7.77;;;5.43;;
10303;SDS011;5197;48.152;8.590;2022-12-07T00:08:43;8.30;;;6.20;;
10303;SDS011;5197;48.152;8.590;2022-12-07T00:11:12;11.73;;;7.37;;
10303;SDS011;5197;48.152;8.590;2022-12-07T00:13:44;7.37;;;6.17;;
10303;SDS011;5197;48.152;8.590;2022-12-07T00:16:12;11.63;;;6.53;;
10303;SDS011;5197;48.152;8.590;2022-12-07T00:18:44;8.07;;;6.57;;
10303;SDS011;5197;48.152;8.590;2022-12-07T00:21:12;8.60;;;6.37;;
10303;SDS011;5197;48.152;8.590;2022-12-07T00:23:44;9.27;;;7.00;;
10303;SDS011;5197;48.152;8.590;2022-12-07T00:26:20;7.87;;;5.97;;
10303;SDS011;5197;48.152;8.590;2022-12-07T00:28:55;9.23;;;6.67;;
10303;SDS011;5197;48.152;8.590;2022-12-07T00:31:25;6.27;;;5.30;;
10303;SDS011;5197;48.152;8.590;2022-12-07T00:33:54;8.63;;;5.73;;
10303;SDS011;5197;48.152;8.590;2022-12-07T00:36:22;9.93;;;6.37;;
10303;SDS011;5197;48.152;8.590;2022-12-07T00:38:53;8.57;;;6.70;;
10303;SDS011;5197;48.152;8.590;2022-12-07T00:41:22;9.93;;;7.17;;
10303;SDS011;5197;48.152;8.590;2022-12-07T00:43:50;9.53;;;6.50;;
10303;SDS011;5197;48.152;8.590;2022-12-07T00:46:18;8.10;;;6.23;;
10303;SDS011;5197;48.152;8.590;2022-12-07T00:48:46;9.33;;;6.03;;
10303;SDS011;5197;48.152;8.590;2022-12-07T00:51:14;9.20;;;6.20;;
10303;SDS011;5197;48.152;8.590;2022-12-07T00:53:42;8.77;;;6.30;;
10303;SDS011;5197;48.152;8.590;2022-12-07T00:56:11;7.47;;;5.63;;
10303;SDS011;5197;48.152;8.590;2022-12-07T00:58:40;9.80;;;6.10;;
10303;SDS011;5197;48.152;8.590;2022-12-07T01:01:08;6.77;;;6.10;;
10303;SDS011;5197;48.152;8.590;2022-12-07T01:03:36;8.03;;;6.27;;
10303;SDS011;5197;48.152;8.590;2022-12-07T01:06:04;11.80;;;6.67;;
10303;SDS011;5197;48.152;8.590;2022-12-07T01:08:31;9.93;;;6.80;;
10303;SDS011;5197;48.152;8.590;2022-12-07T01:11:00;9.10;;;6.30;;
10303;SDS011;5197;48.152;8.590;2022-12-07T01:13:30;9.13;;;6.37;;
10303;SDS011;5197;48.152;8.590;2022-12-07T01:15:58;10.63;;;6.50;;
10303;SDS011;5197;48.152;8.590;2022-12-07T01:18:27;8.57;;;6.23;;
10303;SDS011;5197;48.152;8.590;2022-12-07T01:21:02;7.37;;;5.23;;
10303;SDS011;5197;48.152;8.590;2022-12-07T01:23:29;10.57;;;6.40;;
10303;SDS011;5197;48.152;8.590;2022-12-07T01:26:04;11.67;;;6.57;;
10303;SDS011;5197;48.152;8.590;2022-12-07T01:28:33;10.73;;;6.00;;
10303;SDS011;5197;48.152;8.590;2022-12-07T01:31:04;7.00;;;5.43;;
10303;SDS011;5197;48.152;8.590;2022-12-07T01:33:35;10.87;;;6.13;;
10303;SDS011;5197;48.152;8.590;2022-12-07T01:38:32;6.43;;;4.67;;
10303;SDS011;5197;48.152;8.590;2022-12-07T01:41:00;9.90;;;6.27;;
10303;SDS011;5197;48.152;8.590;2022-12-07T01:43:28;8.73;;;5.60;;
10303;SDS011;5197;48.152;8.590;2022-12-07T01:46:00;7.03;;;5.27;;
10303;SDS011;5197;48.152;8.590;2022-12-07T01:48:32;8.63;;;5.23;;
10303;SDS011;5197;48.152;8.590;2022-12-07T01:51:05;9.87;;;6.03;;
10303;SDS011;5197;48.152;8.590;2022-12-07T01:53:38;8.30;;;5.77;;
10303;SDS011;5197;48.152;8.590;2022-12-07T01:56:10;10.43;;;6.43;;
10303;SDS011;5197;48.152;8.590;2022-12-07T01:58:43;8.60;;;6.30;;
10303;SDS011;5197;48.152;8.590;2022-12-07T02:01:11;8.43;;;6.03;;
10303;SDS011;5197;48.152;8.590;2022-12-07T02:03:39;11.50;;;6.07;;
10303;SDS011;5197;48.152;8.590;2022-12-07T02:06:08;11.40;;;6.47;;
10303;SDS011;5197;48.152;8.590;2022-12-07T02:08:38;7.40;;;5.80;;
10303;SDS011;5197;48.152;8.590;2022-12-07T02:11:06;6.47;;;4.57;;
10303;SDS011;5197;48.152;8.590;2022-12-07T02:13:35;9.43;;;5.30;;
10303;SDS011;5197;48.152;8.590;2022-12-07T02:24:43;8.73;;;6.00;;
10303;SDS011;5197;48.152;8.590;2022-12-07T02:42:47;10.13;;;6.40;;
10303;SDS011;5197;48.152;8.590;2022-12-07T02:45:19;10.07;;;5.73;;
10303;SDS011;5197;48.152;8.590;2022-12-07T02:47:49;9.40;;;5.90;;
10303;SDS011;5197;48.152;8.590;2022-12-07T02:50:20;12.77;;;6.20;;
10303;SDS011;5197;48.152;8.590;2022-12-07T02:52:47;12.53;;;6.20;;
10303;SDS011;5197;48.152;8.590;2022-12-07T02:55:15;7.97;;;5.20;;
10303;SDS011;5197;48.152;8.590;2022-12-07T02:57:50;7.87;;;5.57;;
10303;SDS011;5197;48.152;8.590;2022-12-07T03:03:47;7.03;;;4.80;;
10303;SDS011;5197;48.152;8.590;2022-12-07T03:06:27;8.60;;;4.87;;
10303;SDS011;5197;48.152;8.590;2022-12-07T03:09:07;7.30;;;5.37;;
10303;SDS011;5197;48.152;8.590;2022-12-07T03:11:50;7.90;;;5.63;;
10303;SDS011;5197;48.152;8.590;2022-12-07T03:14:29;8.37;;;6.20;;
10303;SDS011;5197;48.152;8.590;2022-12-07T03:17:09;6.30;;;5.03;;
10303;SDS011;5197;48.152;8.590;2022-12-07T03:19:42;8.63;;;5.33;;
10303;SDS011;5197;48.152;8.590;2022-12-07T03:22:13;7.67;;;5.77;;
10303;SDS011;5197;48.152;8.590;2022-12-07T03:27:09;7.83;;;5.70;;
10303;SDS011;5197;48.152;8.590;2022-12-07T03:29:52;6.60;;;5.07;;
10303;SDS011;5197;48.152;8.590;2022-12-07T03:32:35;5.60;;;4.97;;
10303;SDS011;5197;48.152;8.590;2022-12-07T03:35:04;7.77;;;6.17;;
10303;SDS011;5197;48.152;8.590;2022-12-07T03:42:37;5.47;;;4.53;;
10303;SDS011;5197;48.152;8.590;2022-12-07T03:45:05;7.27;;;5.80;;
10303;SDS011;5197;48.152;8.590;2022-12-07T03:47:34;9.53;;;6.27;;
10303;SDS011;5197;48.152;8.590;2022-12-07T03:52:54;8.90;;;6.20;;
10303;SDS011;5197;48.152;8.590;2022-12-07T03:55:34;9.60;;;5.90;;
10303;SDS011;5197;48.152;8.590;2022-12-07T03:58:05;7.20;;;6.37;;
10303;SDS011;5197;48.152;8.590;2022-12-07T04:00:36;9.27;;;6.23;;
10303;SDS011;5197;48.152;8.590;2022-12-07T04:03:03;6.67;;;4.77;;
10303;SDS011;5197;48.152;8.590;2022-12-07T04:05:30;5.60;;;4.03;;
10303;SDS011;5197;48.152;8.590;2022-12-07T04:07:57;8.03;;;4.97;;
10303;SDS011;5197;48.152;8.590;2022-12-07T04:10:24;5.10;;;4.47;;
10303;SDS011;5197;48.152;8.590;2022-12-07T04:12:51;5.73;;;4.57;;
10303;SDS011;5197;48.152;8.590;2022-12-07T04:15:18;5.87;;;4.87;;
10303;SDS011;5197;48.152;8.590;2022-12-07T04:17:45;6.77;;;4.87;;
10303;SDS011;5197;48.152;8.590;2022-12-07T04:20:12;5.03;;;4.53;;
10303;SDS011;5197;48.152;8.590;2022-12-07T04:22:39;5.97;;;5.37;;
10303;SDS011;5197;48.152;8.590;2022-12-07T04:25:06;5.80;;;5.07;;
10303;SDS011;5197;48.152;8.590;2022-12-07T04:27:33;5.97;;;4.90;;
10303;SDS011;5197;48.152;8.590;2022-12-07T04:30:00;6.30;;;5.07;;
10303;SDS011;5197;48.152;8.590;2022-12-07T04:32:28;6.43;;;5.20;;
10303;SDS011;5197;48.152;8.590;2022-12-07T04:34:55;6.10;;;5.03;;
10303;SDS011;5197;48.152;8.590;2022-12-07T04:37:23;6.07;;;4.90;;
10303;SDS011;5197;48.152;8.590;2022-12-07T04:39:50;5.93;;;5.20;;
10303;SDS011;5197;48.152;8.590;2022-12-07T04:42:17;6.20;;;5.60;;
10303;SDS011;5197;48.152;8.590;2022-12-07T04:44:44;6.00;;;5.20;;
10303;SDS011;5197;48.152;8.590;2022-12-07T04:47:11;6.43;;;5.53;;
10303;SDS011;5197;48.152;8.590;2022-12-07T04:49:38;6.83;;;5.27;;
10303;SDS011;5197;48.152;8.590;2022-12-07T04:52:05;6.30;;;5.63;;
10303;SDS011;5197;48.152;8.590;2022-12-07T04:54:32;6.17;;;5.10;;
10303;SDS011;5197;48.152;8.590;2022-12-07T04:56:59;6.63;;;5.80;;
10303;SDS011;5197;48.152;8.590;2022-12-07T04:59:26;5.93;;;5.33;;
10303;SDS011;5197;48.152;8.590;2022-12-07T05:01:53;6.03;;;5.43;;
10303;SDS011;5197;48.152;8.590;2022-12-07T05:04:20;7.40;;;5.50;;
10303;SDS011;5197;48.152;8.590;2022-12-07T05:06:47;6.03;;;4.37;;
10303;SDS011;5197;48.152;8.590;2022-12-07T05:09:14;6.90;;;6.07;;
10303;SDS011;5197;48.152;8.590;2022-12-07T05:11:41;7.10;;;4.77;;
10303;SDS011;5197;48.152;8.590;2022-12-07T05:16:39;8.43;;;6.17;;
10303;SDS011;5197;48.152;8.590;2022-12-07T05:19:08;6.27;;;5.67;;
10303;SDS011;5197;48.152;8.590;2022-12-07T05:21:35;8.40;;;6.40;;
10303;SDS011;5197;48.152;8.590;2022-12-07T05:24:03;7.50;;;6.13;;
10303;SDS011;5197;48.152;8.590;2022-12-07T05:26:31;7.93;;;6.50;;
10303;SDS011;5197;48.152;8.590;2022-12-07T05:28:58;6.57;;;5.67;;
10303;SDS011;5197;48.152;8.590;2022-12-07T05:31:26;7.30;;;6.00;;
10303;SDS011;5197;48.152;8.590;2022-12-07T05:33:53;7.00;;;5.50;;
10303;SDS011;5197;48.152;8.590;2022-12-07T05:36:21;9.03;;;6.93;;
10303;SDS011;5197;48.152;8.590;2022-12-07T05:38:48;7.03;;;6.17;;
10303;SDS011;5197;48.152;8.590;2022-12-07T05:41:16;7.83;;;6.50;;
10303;SDS011;5197;48.152;8.590;2022-12-07T05:44:03;8.70;;;7.07;;
10303;SDS011;5197;48.152;8.590;2022-12-07T05:46:31;8.90;;;6.93;;
10303;SDS011;5197;48.152;8.590;2022-12-07T05:48:58;10.03;;;7.10;;
10303;SDS011;5197;48.152;8.590;2022-12-07T05:51:26;9.70;;;7.27;;
10303;SDS011;5197;48.152;8.590;2022-12-07T05:53:53;8.70;;;7.80;;
10303;SDS011;5197;48.152;8.590;2022-12-07T05:56:20;10.70;;;9.00;;
10303;SDS011;5197;48.152;8.590;2022-12-07T05:58:47;9.67;;;8.40;;
10303;SDS011;5197;48.152;8.590;2022-12-07T06:01:33;15.43;;;11.10;;
10303;SDS011;5197;48.152;8.590;2022-12-07T06:04:00;11.40;;;8.40;;
10303;SDS011;5197;48.152;8.590;2022-12-07T06:06:27;11.37;;;8.07;;
10303;SDS011;5197;48.152;8.590;2022-12-07T06:08:54;10.57;;;7.27;;
10303;SDS011;5197;48.152;8.590;2022-12-07T06:11:21;9.60;;;7.43;;
10303;SDS011;5197;48.152;8.590;2022-12-07T06:14:06;9.00;;;6.93;;
10303;SDS011;5197;48.152;8.590;2022-12-07T06:16:33;11.20;;;7.57;;
10303;SDS011;5197;48.152;8.590;2022-12-07T06:19:01;9.13;;;7.77;;
10303;SDS011;5197;48.152;8.590;2022-12-07T06:21:28;10.80;;;8.03;;
10303;SDS011;5197;48.152;8.590;2022-12-07T06:23:55;13.70;;;8.20;;
10303;SDS011;5197;48.152;8.590;2022-12-07T06:26:22;10.53;;;7.37;;
10303;SDS011;5197;48.152;8.590;2022-12-07T06:28:49;11.27;;;8.10;;
10303;SDS011;5197;48.152;8.590;2022-12-07T06:31:16;10.83;;;7.73;;
10303;SDS011;5197;48.152;8.590;2022-12-07T06:33:43;11.77;;;7.90;;
10303;SDS011;5197;48.152;8.590;2022-12-07T06:36:10;9.43;;;7.20;;
10303;SDS011;5197;48.152;8.590;2022-12-07T06:38:38;11.73;;;7.93;;
10303;SDS011;5197;48.152;8.590;2022-12-07T06:41:05;10.10;;;7.67;;
10303;SDS011;5197;48.152;8.590;2022-12-07T06:43:32;9.90;;;7.50;;
10303;SDS011;5197;48.152;8.590;2022-12-07T06:46:00;15.67;;;8.10;;
10303;SDS011;5197;48.152;8.590;2022-12-07T06:48:27;8.13;;;6.70;;
10303;SDS011;5197;48.152;8.590;2022-12-07T06:50:54;13.00;;;10.23;;
10303;SDS011;5197;48.152;8.590;2022-12-07T06:53:21;12.37;;;9.23;;
10303;SDS011;5197;48.152;8.590;2022-12-07T06:55:49;20.77;;;13.73;;
10303;SDS011;5197;48.152;8.590;2022-12-07T06:58:17;13.40;;;8.90;;
10303;SDS011;5197;48.152;8.590;2022-12-07T07:00:44;13.13;;;7.60;;
10303;SDS011;5197;48.152;8.590;2022-12-07T07:03:11;13.70;;;7.93;;
10303;SDS011;5197;48.152;8.590;2022-12-07T07:05:38;10.20;;;6.37;;
10303;SDS011;5197;48.152;8.590;2022-12-07T07:08:05;9.30;;;7.37;;
10303;SDS011;5197;48.152;8.590;2022-12-07T07:10:50;11.37;;;7.53;;
10303;SDS011;5197;48.152;8.590;2022-12-07T07:13:17;9.97;;;6.20;;
10303;SDS011;5197;48.152;8.590;2022-12-07T07:15:46;8.60;;;6.67;;
10303;SDS011;5197;48.152;8.590;2022-12-07T07:18:13;13.77;;;9.57;;
10303;SDS011;5197;48.152;8.590;2022-12-07T07:20:40;20.17;;;13.73;;
10303;SDS011;5197;48.152;8.590;2022-12-07T07:23:07;22.63;;;15.73;;
10303;SDS011;5197;48.152;8.590;2022-12-07T07:25:34;24.10;;;14.83;;
10303;SDS011;5197;48.152;8.590;2022-12-07T07:28:02;36.83;;;23.00;;
10303;SDS011;5197;48.152;8.590;2022-12-07T07:30:29;22.43;;;14.67;;
10303;SDS011;5197;48.152;8.590;2022-12-07T07:33:00;11.87;;;8.30;;
10303;SDS011;5197;48.152;8.590;2022-12-07T07:35:28;8.87;;;7.13;;
10303;SDS011;5197;48.152;8.590;2022-12-07T07:37:57;8.50;;;6.90;;
10303;SDS011;5197;48.152;8.590;2022-12-07T07:40:24;8.23;;;6.87;;
10303;SDS011;5197;48.152;8.590;2022-12-07T07:42:52;9.43;;;7.33;;
10303;SDS011;5197;48.152;8.590;2022-12-07T07:45:21;12.63;;;6.97;;
10303;SDS011;5197;48.152;8.590;2022-12-07T07:47:49;12.90;;;7.27;;
10303;SDS011;5197;48.152;8.590;2022-12-07T07:50:16;9.97;;;7.53;;
10303;SDS011;5197;48.152;8.590;2022-12-07T07:52:44;24.73;;;16.60;;
10303;SDS011;5197;48.152;8.590;2022-12-07T07:55:11;14.03;;;8.30;;
10303;SDS011;5197;48.152;8.590;2022-12-07T07:57:39;16.87;;;10.27;;
10303;SDS011;5197;48.152;8.590;2022-12-07T08:00:08;19.97;;;12.00;;
10303;SDS011;5197;48.152;8.590;2022-12-07T08:02:38;19.50;;;9.70;;
10303;SDS011;5197;48.152;8.590;2022-12-07T08:05:05;9.33;;;6.20;;
10303;SDS011;5197;48.152;8.590;2022-12-07T08:07:34;8.03;;;5.33;;
10303;SDS011;5197;48.152;8.590;2022-12-07T08:10:01;6.73;;;5.17;;
10303;SDS011;5197;48.152;8.590;2022-12-07T08:12:29;7.33;;;5.03;;
10303;SDS011;5197;48.152;8.590;2022-12-07T08:14:56;8.40;;;5.47;;
10303;SDS011;5197;48.152;8.590;2022-12-07T08:17:23;11.20;;;7.13;;
10303;SDS011;5197;48.152;8.590;2022-12-07T08:19:50;8.40;;;5.00;;
10303;SDS011;5197;48.152;8.590;2022-12-07T08:22:17;7.70;;;6.50;;
10303;SDS011;5197;48.152;8.590;2022-12-07T08:24:45;4.73;;;3.33;;
10303;SDS011;5197;48.152;8.590;2022-12-07T08:27:12;6.80;;;5.20;;
10303;SDS011;5197;48.152;8.590;2022-12-07T08:29:39;7.20;;;6.17;;
10303;SDS011;5197;48.152;8.590;2022-12-07T08:32:06;7.17;;;5.33;;
10303;SDS011;5197;48.152;8.590;2022-12-07T08:34:35;8.80;;;5.83;;
10303;SDS011;5197;48.152;8.590;2022-12-07T08:37:03;5.83;;;4.27;;
10303;SDS011;5197;48.152;8.590;2022-12-07T08:39:30;6.97;;;5.20;;
10303;SDS011;5197;48.152;8.590;2022-12-07T08:41:58;9.97;;;6.47;;
10303;SDS011;5197;48.152;8.590;2022-12-07T08:44:25;6.90;;;5.37;;
10303;SDS011;5197;48.152;8.590;2022-12-07T08:46:54;6.57;;;5.77;;
10303;SDS011;5197;48.152;8.590;2022-12-07T08:49:26;6.40;;;4.97;;
10303;SDS011;5197;48.152;8.590;2022-12-07T08:52:07;8.10;;;6.07;;
10303;SDS011;5197;48.152;8.590;2022-12-07T08:54:35;9.57;;;6.87;;
10303;SDS011;5197;48.152;8.590;2022-12-07T08:57:04;8.10;;;6.50;;
10303;SDS011;5197;48.152;8.590;2022-12-07T08:59:33;9.30;;;5.73;;
10303;SDS011;5197;48.152;8.590;2022-12-07T09:02:02;13.27;;;7.70;;
10303;SDS011;5197;48.152;8.590;2022-12-07T09:04:32;9.50;;;7.20;;
10303;SDS011;5197;48.152;8.590;2022-12-07T09:06:59;7.63;;;6.83;;
10303;SDS011;5197;48.152;8.590;2022-12-07T09:09:26;11.37;;;8.60;;
10303;SDS011;5197;48.152;8.590;2022-12-07T09:11:53;10.63;;;7.40;;
10303;SDS011;5197;48.152;8.590;2022-12-07T09:14:20;7.47;;;6.37;;
10303;SDS011;5197;48.152;8.590;2022-12-07T09:16:47;6.13;;;5.40;;
10303;SDS011;5197;48.152;8.590;2022-12-07T09:19:14;7.27;;;6.03;;
10303;SDS011;5197;48.152;8.590;2022-12-07T09:21:41;5.33;;;3.93;;
10303;SDS011;5197;48.152;8.590;2022-12-07T09:24:08;5.60;;;4.93;;
10303;SDS011;5197;48.152;8.590;2022-12-07T09:26:35;7.07;;;5.40;;
10303;SDS011;5197;48.152;8.590;2022-12-07T09:29:02;5.73;;;5.13;;
10303;SDS011;5197;48.152;8.590;2022-12-07T09:31:30;6.73;;;5.20;;
10303;SDS011;5197;48.152;8.590;2022-12-07T09:33:57;6.60;;;4.27;;
10303;SDS011;5197;48.152;8.590;2022-12-07T09:36:26;7.10;;;5.43;;
10303;SDS011;5197;48.152;8.590;2022-12-07T09:38:54;3.97;;;3.57;;
10303;SDS011;5197;48.152;8.590;2022-12-07T09:41:22;5.33;;;4.30;;
10303;SDS011;5197;48.152;8.590;2022-12-07T09:43:50;6.60;;;4.97;;
10303;SDS011;5197;48.152;8.590;2022-12-07T09:46:19;7.50;;;5.00;;
10303;SDS011;5197;48.152;8.590;2022-12-07T09:48:47;6.37;;;4.93;;
10303;SDS011;5197;48.152;8.590;2022-12-07T09:51:17;8.33;;;5.30;;
10303;SDS011;5197;48.152;8.590;2022-12-07T09:53:51;6.60;;;4.73;;
10303;SDS011;5197;48.152;8.590;2022-12-07T09:56:21;5.83;;;3.80;;
10303;SDS011;5197;48.152;8.590;2022-12-07T09:58:49;6.20;;;5.20;;
10303;SDS011;5197;48.152;8.590;2022-12-07T10:01:19;4.97;;;4.33;;
10303;SDS011;5197;48.152;8.590;2022-12-07T10:06:19;5.90;;;4.73;;
10303;SDS011;5197;48.152;8.590;2022-12-07T10:08:47;4.97;;;4.00;;
10303;SDS011;5197;48.152;8.590;2022-12-07T10:11:14;4.07;;;3.40;;
10303;SDS011;5197;48.152;8.590;2022-12-07T10:13:43;5.10;;;4.47;;
10303;SDS011;5197;48.152;8.590;2022-12-07T10:24:41;3.80;;;1.63;;
10303;SDS011;5197;48.152;8.590;2022-12-07T10:27:17;3.50;;;3.20;;
10303;SDS011;5197;48.152;8.590;2022-12-07T10:29:49;2.77;;;2.57;;
10303;SDS011;5197;48.152;8.590;2022-12-07T10:34:44;1.83;;;1.67;;
10303;SDS011;5197;48.152;8.590;2022-12-07T10:37:18;2.30;;;2.10;;
10303;SDS011;5197;48.152;8.590;2022-12-07T10:42:17;3.13;;;2.17;;
10303;SDS011;5197;48.152;8.590;2022-12-07T10:45:09;5.60;;;3.80;;
10303;SDS011;5197;48.152;8.590;2022-12-07T10:47:38;3.43;;;3.13;;
10303;SDS011;5197;48.152;8.590;2022-12-07T10:50:14;3.47;;;3.10;;
10303;SDS011;5197;48.152;8.590;2022-12-07T10:55:21;2.60;;;2.40;;
10303;SDS011;5197;48.152;8.590;2022-12-07T10:57:54;2.67;;;2.47;;
10303;SDS011;5197;48.152;8.590;2022-12-07T11:00:51;2.80;;;2.50;;
10303;SDS011;5197;48.152;8.590;2022-12-07T11:06:31;2.20;;;2.10;;
10303;SDS011;5197;48.152;8.590;2022-12-07T11:20:26;2.37;;;2.00;;
10303;SDS011;5197;48.152;8.590;2022-12-07T11:25:36;2.60;;;2.40;;
10303;SDS011;5197;48.152;8.590;2022-12-07T11:31:26;2.23;;;1.77;;
10303;SDS011;5197;48.152;8.590;2022-12-07T11:37:13;3.13;;;2.80;;
10303;SDS011;5197;48.152;8.590;2022-12-07T11:39:54;4.50;;;3.00;;
10303;SDS011;5197;48.152;8.590;2022-12-07T11:42:27;2.70;;;2.17;;
10303;SDS011;5197;48.152;8.590;2022-12-07T11:45:00;3.23;;;2.83;;
10303;SDS011;5197;48.152;8.590;2022-12-07T11:50:45;6.03;;;3.47;;
10303;SDS011;5197;48.152;8.590;2022-12-07T11:53:23;4.77;;;2.70;;
10303;SDS011;5197;48.152;8.590;2022-12-07T12:01:11;3.30;;;2.93;;
10303;SDS011;5197;48.152;8.590;2022-12-07T12:06:43;2.60;;;2.40;;
10303;SDS011;5197;48.152;8.590;2022-12-07T12:09:12;1.03;;;0.83;;
10303;SDS011;5197;48.152;8.590;2022-12-07T12:25:54;1.83;;;1.73;;
10303;SDS011;5197;48.152;8.590;2022-12-07T12:31:09;1.63;;;1.53;;
10303;SDS011;5197;48.152;8.590;2022-12-07T12:33:46;0.80;;;0.80;;
10303;SDS011;5197;48.152;8.590;2022-12-07T12:54:29;2.90;;;2.10;;
10303;SDS011;5197;48.152;8.590;2022-12-07T13:02:26;1.33;;;1.23;;
10303;SDS011;5197;48.152;8.590;2022-12-07T13:23:37;2.33;;;2.00;;
10303;SDS011;5197;48.152;8.590;2022-12-07T13:26:14;1.80;;;1.70;;
10303;SDS011;5197;48.152;8.590;2022-12-07T13:28:47;2.60;;;2.40;;
10303;SDS011;5197;48.152;8.590;2022-12-07T13:33:54;4.10;;;2.47;;
10303;SDS011;5197;48.152;8.590;2022-12-07T13:36:22;2.60;;;2.40;;
10303;SDS011;5197;48.152;8.590;2022-12-07T13:38:59;2.40;;;2.20;;
10303;SDS011;5197;48.152;8.590;2022-12-07T13:41:27;0.90;;;0.90;;
10303;SDS011;5197;48.152;8.590;2022-12-07T13:49:30;10.27;;;3.23;;
10303;SDS011;5197;48.152;8.590;2022-12-07T13:52:42;15.80;;;3.93;;
10303;SDS011;5197;48.152;8.590;2022-12-07T13:55:00;7.23;;;3.37;;
10303;SDS011;5197;48.152;8.590;2022-12-07T13:57:31;14.70;;;4.23;;
10303;SDS011;5197;48.152;8.590;2022-12-07T14:00:02;5.40;;;2.80;;
10303;SDS011;5197;48.152;8.590;2022-12-07T14:02:32;3.57;;;1.77;;
10303;SDS011;5197;48.152;8.590;2022-12-07T14:05:12;3.83;;;2.47;;
10303;SDS011;5197;48.152;8.590;2022-12-07T14:10:41;3.53;;;2.67;;
10303;SDS011;5197;48.152;8.590;2022-12-07T14:16:05;1.40;;;1.30;;
10303;SDS011;5197;48.152;8.590;2022-12-07T14:18:44;2.20;;;2.00;;
10303;SDS011;5197;48.152;8.590;2022-12-07T14:21:15;1.87;;;1.60;;
10303;SDS011;5197;48.152;8.590;2022-12-07T14:23:45;1.50;;;1.23;;
10303;SDS011;5197;48.152;8.590;2022-12-07T14:26:27;5.03;;;2.63;;
10303;SDS011;5197;48.152;8.590;2022-12-07T14:29:18;1.37;;;1.23;;
10303;SDS011;5197;48.152;8.590;2022-12-07T14:31:45;2.67;;;1.57;;
10303;SDS011;5197;48.152;8.590;2022-12-07T14:34:13;2.23;;;2.13;;
10303;SDS011;5197;48.152;8.590;2022-12-07T14:36:40;1.63;;;1.53;;
10303;SDS011;5197;48.152;8.590;2022-12-07T14:39:07;2.60;;;1.93;;
10303;SDS011;5197;48.152;8.590;2022-12-07T14:41:39;4.00;;;1.90;;
10303;SDS011;5197;48.152;8.590;2022-12-07T14:44:23;2.20;;;2.00;;
10303;SDS011;5197;48.152;8.590;2022-12-07T14:46:57;1.40;;;1.30;;
10303;SDS011;5197;48.152;8.590;2022-12-07T14:49:44;2.57;;;1.90;;
10303;SDS011;5197;48.152;8.590;2022-12-07T14:52:13;2.37;;;2.10;;
10303;SDS011;5197;48.152;8.590;2022-12-07T14:55:04;3.17;;;1.70;;
10303;SDS011;5197;48.152;8.590;2022-12-07T14:57:31;5.20;;;2.07;;
10303;SDS011;5197;48.152;8.590;2022-12-07T14:59:58;3.10;;;2.00;;
10303;SDS011;5197;48.152;8.590;2022-12-07T15:02:25;2.40;;;2.20;;
10303;SDS011;5197;48.152;8.590;2022-12-07T15:04:52;2.37;;;2.10;;
10303;SDS011;5197;48.152;8.590;2022-12-07T15:07:19;1.70;;;1.57;;
10303;SDS011;5197;48.152;8.590;2022-12-07T15:09:47;1.83;;;1.73;;
10303;SDS011;5197;48.152;8.590;2022-12-07T15:12:15;2.53;;;2.33;;
10303;SDS011;5197;48.152;8.590;2022-12-07T15:14:42;3.63;;;2.30;;
10303;SDS011;5197;48.152;8.590;2022-12-07T15:17:12;2.50;;;1.97;;
10303;SDS011;5197;48.152;8.590;2022-12-07T15:19:55;2.20;;;2.10;;
10303;SDS011;5197;48.152;8.590;2022-12-07T15:22:22;3.17;;;2.23;;
10303;SDS011;5197;48.152;8.590;2022-12-07T15:24:49;2.60;;;2.40;;
10303;SDS011;5197;48.152;8.590;2022-12-07T15:27:15;2.17;;;1.97;;
10303;SDS011;5197;48.152;8.590;2022-12-07T15:29:43;2.47;;;2.13;;
10303;SDS011;5197;48.152;8.590;2022-12-07T15:32:10;2.10;;;2.00;;
10303;SDS011;5197;48.152;8.590;2022-12-07T15:34:37;2.13;;;2.03;;
10303;SDS011;5197;48.152;8.590;2022-12-07T15:37:06;2.60;;;2.07;;
10303;SDS011;5197;48.152;8.590;2022-12-07T15:39:35;2.90;;;2.37;;
10303;SDS011;5197;48.152;8.590;2022-12-07T15:42:03;2.37;;;2.17;;
10303;SDS011;5197;48.152;8.590;2022-12-07T15:44:30;2.30;;;2.20;;
10303;SDS011;5197;48.152;8.590;2022-12-07T15:47:15;2.40;;;2.20;;
10303;SDS011;5197;48.152;8.590;2022-12-07T15:49:43;3.23;;;2.27;;
10303;SDS011;5197;48.152;8.590;2022-12-07T15:52:10;2.37;;;2.10;;
10303;SDS011;5197;48.152;8.590;2022-12-07T15:54:37;2.23;;;2.10;;
10303;SDS011;5197;48.152;8.590;2022-12-07T15:57:04;2.50;;;2.30;;
10303;SDS011;5197;48.152;8.590;2022-12-07T15:59:31;2.63;;;2.43;;
10303;SDS011;5197;48.152;8.590;2022-12-07T16:01:58;2.87;;;2.67;;
10303;SDS011;5197;48.152;8.590;2022-12-07T16:04:26;2.85;;;2.65;;
10303;SDS011;5197;48.152;8.590;2022-12-07T16:06:55;3.47;;;2.40;;
10303;SDS011;5197;48.152;8.590;2022-12-07T16:09:22;4.97;;;2.57;;
10303;SDS011;5197;48.152;8.590;2022-12-07T16:11:50;2.83;;;2.63;;
10303;SDS011;5197;48.152;8.590;2022-12-07T16:14:18;2.73;;;2.53;;
10303;SDS011;5197;48.152;8.590;2022-12-07T16:16:45;3.17;;;2.93;;
10303;SDS011;5197;48.152;8.590;2022-12-07T16:19:13;2.57;;;2.37;;
10303;SDS011;5197;48.152;8.590;2022-12-07T16:21:40;2.40;;;2.20;;
10303;SDS011;5197;48.152;8.590;2022-12-07T16:24:08;2.00;;;1.90;;
10303;SDS011;5197;48.152;8.590;2022-12-07T16:26:36;2.47;;;2.27;;
10303;SDS011;5197;48.152;8.590;2022-12-07T16:29:03;2.83;;;2.63;;
10303;SDS011;5197;48.152;8.590;2022-12-07T16:31:30;3.40;;;3.10;;
10303;SDS011;5197;48.152;8.590;2022-12-07T16:33:57;3.03;;;2.80;;
10303;SDS011;5197;48.152;8.590;2022-12-07T16:36:24;3.73;;;3.20;;
10303;SDS011;5197;48.152;8.590;2022-12-07T16:39:13;3.57;;;3.17;;
10303;SDS011;5197;48.152;8.590;2022-12-07T16:41:41;4.33;;;3.10;;
10303;SDS011;5197;48.152;8.590;2022-12-07T16:44:09;3.20;;;3.00;;
10303;SDS011;5197;48.152;8.590;2022-12-07T16:46:38;2.97;;;2.63;;
10303;SDS011;5197;48.152;8.590;2022-12-07T16:49:06;4.10;;;2.90;;
10303;SDS011;5197;48.152;8.590;2022-12-07T16:51:37;5.93;;;3.10;;
10303;SDS011;5197;48.152;8.590;2022-12-07T16:54:04;1.43;;;1.33;;
10303;SDS011;5197;48.152;8.590;2022-12-07T16:56:31;2.87;;;2.67;;
10303;SDS011;5197;48.152;8.590;2022-12-07T16:58:58;3.10;;;2.80;;
10303;SDS011;5197;48.152;8.590;2022-12-07T17:01:25;3.60;;;3.30;;
10303;SDS011;5197;48.152;8.590;2022-12-07T17:03:55;3.13;;;2.70;;
10303;SDS011;5197;48.152;8.590;2022-12-07T17:06:24;4.30;;;3.90;;
10303;SDS011;5197;48.152;8.590;2022-12-07T17:08:53;4.20;;;3.47;;
10303;SDS011;5197;48.152;8.590;2022-12-07T17:11:23;4.83;;;3.50;;
10303;SDS011;5197;48.152;8.590;2022-12-07T17:13:54;4.43;;;4.03;;
10303;SDS011;5197;48.152;8.590;2022-12-07T17:16:40;5.13;;;3.80;;
10303;SDS011;5197;48.152;8.590;2022-12-07T17:19:08;4.10;;;3.50;;
10303;SDS011;5197;48.152;8.590;2022-12-07T17:21:37;4.40;;;3.47;;
10303;SDS011;5197;48.152;8.590;2022-12-07T17:24:05;5.17;;;4.67;;
10303;SDS011;5197;48.152;8.590;2022-12-07T17:26:34;5.40;;;4.17;;
10303;SDS011;5197;48.152;8.590;2022-12-07T17:29:02;4.87;;;4.33;;
10303;SDS011;5197;48.152;8.590;2022-12-07T17:31:31;5.00;;;4.50;;
10303;SDS011;5197;48.152;8.590;2022-12-07T17:33:59;4.53;;;4.13;;
10303;SDS011;5197;48.152;8.590;2022-12-07T17:36:30;4.80;;;4.40;;
10303;SDS011;5197;48.152;8.590;2022-12-07T17:38:57;5.93;;;4.13;;
10303;SDS011;5197;48.152;8.590;2022-12-07T17:41:26;5.10;;;4.60;;
10303;SDS011;5197;48.152;8.590;2022-12-07T17:44:16;6.73;;;4.50;;
10303;SDS011;5197;48.152;8.590;2022-12-07T17:46:45;5.90;;;4.67;;
10303;SDS011;5197;48.152;8.590;2022-12-07T17:49:13;5.43;;;4.83;;
10303;SDS011;5197;48.152;8.590;2022-12-07T17:51:40;6.37;;;4.83;;
10303;SDS011;5197;48.152;8.590;2022-12-07T17:54:26;7.07;;;5.03;;
10303;SDS011;5197;48.152;8.590;2022-12-07T17:56:54;6.30;;;5.10;;
10303;SDS011;5197;48.152;8.590;2022-12-07T17:59:22;5.20;;;4.63;;
10303;SDS011;5197;48.152;8.590;2022-12-07T18:01:50;6.67;;;4.47;;
10303;SDS011;5197;48.152;8.590;2022-12-07T18:04:17;5.93;;;4.40;;